ETD217 VIDP-OMAA
Flight info
| Callsign | ETD217 |
|---|---|
| Flight time | N/A |
| Altitude | 38000 |
| Route | SURAM7B SURAM G333 MERUN G452 RK G214 PG J132 BIVIN R462 MIXAM P899 ROVOS |
| Aircraft | A35K/H-SDE2E3GHIJ1J3J4J5LM1ORWXY/LB1D1 |
Departure
| Time | 2026-04-27 08:22 |
|---|---|
| Airport | Indira Gandhi International Airport (VIDP) |
Arrival
| Time | N/A |
|---|---|
| Airport | Zayed International Airport (OMAA) |
| Time | Latitude | Longitude | Altitude | Speed | Heading |
|---|---|---|---|---|---|
| 2026-04-27 07:57 | 28.56414 | 77.08175 | 756 ft | 0 kts | 14° |
| 2026-04-27 08:09 | 28.56400 | 77.08171 | 752 ft | 4 kts | 20° |
| 2026-04-27 08:09 | 28.56375 | 77.08158 | 756 ft | 4 kts | 34° |
| 2026-04-27 08:10 | 28.56355 | 77.08138 | 753 ft | 4 kts | 54° |
| 2026-04-27 08:10 | 28.56345 | 77.08112 | 756 ft | 4 kts | 93° |
| 2026-04-27 08:10 | 28.56345 | 77.08104 | 752 ft | 0 kts | 104° |
| 2026-04-27 08:12 | 28.56344 | 77.08109 | 756 ft | 2 kts | 104° |
| 2026-04-27 08:12 | 28.56340 | 77.08130 | 751 ft | 4 kts | 102° |
| 2026-04-27 08:12 | 28.56334 | 77.08168 | 755 ft | 6 kts | 101° |
| 2026-04-27 08:13 | 28.56322 | 77.08221 | 754 ft | 8 kts | 104° |
| 2026-04-27 08:13 | 28.56307 | 77.08290 | 753 ft | 10 kts | 104° |
| 2026-04-27 08:13 | 28.56287 | 77.08372 | 752 ft | 12 kts | 106° |
| 2026-04-27 08:13 | 28.56262 | 77.08467 | 753 ft | 13 kts | 106° |
| 2026-04-27 08:14 | 28.56235 | 77.08576 | 751 ft | 15 kts | 105° |
| 2026-04-27 08:14 | 28.56205 | 77.08697 | 756 ft | 17 kts | 105° |
| 2026-04-27 08:14 | 28.56173 | 77.08831 | 752 ft | 18 kts | 105° |
| 2026-04-27 08:14 | 28.56137 | 77.08975 | 751 ft | 20 kts | 105° |
| 2026-04-27 08:15 | 28.56101 | 77.09128 | 753 ft | 21 kts | 105° |
| 2026-04-27 08:15 | 28.56062 | 77.09293 | 752 ft | 22 kts | 105° |
| 2026-04-27 08:15 | 28.56021 | 77.09468 | 751 ft | 24 kts | 105° |
| 2026-04-27 08:15 | 28.55978 | 77.09653 | 752 ft | 25 kts | 104° |
| 2026-04-27 08:16 | 28.55934 | 77.09843 | 751 ft | 25 kts | 105° |
| 2026-04-27 08:16 | 28.55890 | 77.10036 | 752 ft | 26 kts | 104° |
| 2026-04-27 08:16 | 28.55850 | 77.10216 | 753 ft | 20 kts | 104° |
| 2026-04-27 08:16 | 28.55894 | 77.10344 | 754 ft | 19 kts | 24° |
| 2026-04-27 08:17 | 28.56022 | 77.10394 | 752 ft | 20 kts | 26° |
| 2026-04-27 08:17 | 28.56065 | 77.10528 | 752 ft | 19 kts | 103° |
| 2026-04-27 08:17 | 28.56032 | 77.10683 | 752 ft | 21 kts | 103° |
| 2026-04-27 08:17 | 28.55998 | 77.10849 | 753 ft | 22 kts | 104° |
| 2026-04-27 08:18 | 28.55946 | 77.11020 | 755 ft | 23 kts | 110° |
| 2026-04-27 08:18 | 28.55902 | 77.11202 | 752 ft | 24 kts | 102° |
| 2026-04-27 08:18 | 28.55865 | 77.11392 | 756 ft | 25 kts | 103° |
| 2026-04-27 08:18 | 28.55823 | 77.11594 | 751 ft | 26 kts | 104° |
| 2026-04-27 08:19 | 28.55775 | 77.11799 | 752 ft | 27 kts | 104° |
| 2026-04-27 08:19 | 28.55729 | 77.12001 | 755 ft | 21 kts | 104° |
| 2026-04-27 08:19 | 28.55715 | 77.12058 | 752 ft | 6 kts | 104° |
| 2026-04-27 08:19 | 28.55703 | 77.12114 | 756 ft | 8 kts | 104° |
| 2026-04-27 08:20 | 28.55713 | 77.12177 | 754 ft | 9 kts | 49° |
| 2026-04-27 08:20 | 28.55767 | 77.12210 | 754 ft | 9 kts | 26° |
| 2026-04-27 08:20 | 28.55829 | 77.12226 | 758 ft | 9 kts | 350° |
| 2026-04-27 08:20 | 28.55864 | 77.12180 | 758 ft | 8 kts | 286° |
| 2026-04-27 08:21 | 28.55891 | 77.12075 | 757 ft | 35 kts | 286° |
| 2026-04-27 08:21 | 28.56018 | 77.11539 | 751 ft | 103 kts | 284° |
| 2026-04-27 08:21 | 28.56249 | 77.10533 | 754 ft | 158 kts | 284° |
| 2026-04-27 08:21 | 28.56547 | 77.09214 | 1166 ft | 173 kts | 285° |
| 2026-04-27 08:22 | 28.56870 | 77.07929 | 1884 ft | 166 kts | 286° |
| 2026-04-27 08:22 | 28.57186 | 77.06621 | 2171 ft | 182 kts | 285° |
| 2026-04-27 08:22 | 28.57525 | 77.05149 | 2349 ft | 203 kts | 285° |
| 2026-04-27 08:22 | 28.57900 | 77.03499 | 2513 ft | 227 kts | 285° |
| 2026-04-27 08:23 | 28.58314 | 77.01677 | 2748 ft | 249 kts | 285° |
| 2026-04-27 08:23 | 28.58760 | 76.99716 | 3184 ft | 260 kts | 285° |
| 2026-04-27 08:23 | 28.59214 | 76.97700 | 3825 ft | 266 kts | 284° |
| 2026-04-27 08:23 | 28.59676 | 76.95653 | 4592 ft | 266 kts | 285° |
| 2026-04-27 08:24 | 28.60138 | 76.93600 | 5316 ft | 268 kts | 285° |
| 2026-04-27 08:24 | 28.60604 | 76.91539 | 5997 ft | 270 kts | 285° |
| 2026-04-27 08:24 | 28.60963 | 76.89430 | 6667 ft | 272 kts | 277° |
| 2026-04-27 08:24 | 28.61111 | 76.87271 | 7288 ft | 275 kts | 274° |
| 2026-04-27 08:25 | 28.61218 | 76.85076 | 7858 ft | 279 kts | 274° |
| 2026-04-27 08:25 | 28.61323 | 76.82858 | 8402 ft | 282 kts | 274° |
| 2026-04-27 08:25 | 28.61431 | 76.80654 | 8656 ft | 282 kts | 274° |
| 2026-04-27 08:25 | 28.61542 | 76.78422 | 8693 ft | 283 kts | 274° |
| 2026-04-27 08:26 | 28.61657 | 76.76179 | 8694 ft | 284 kts | 274° |
| 2026-04-27 08:26 | 28.61773 | 76.73936 | 8693 ft | 284 kts | 274° |
| 2026-04-27 08:26 | 28.61884 | 76.71695 | 8695 ft | 284 kts | 274° |
| 2026-04-27 08:26 | 28.62093 | 76.69467 | 8701 ft | 283 kts | 280° |
| 2026-04-27 08:27 | 28.62439 | 76.67250 | 8945 ft | 286 kts | 281° |
| 2026-04-27 08:27 | 28.62803 | 76.65021 | 9551 ft | 287 kts | 281° |
| 2026-04-27 08:27 | 28.63170 | 76.62772 | 10102 ft | 294 kts | 281° |
| 2026-04-27 08:27 | 28.63552 | 76.60427 | 10388 ft | 309 kts | 281° |
| 2026-04-27 08:28 | 28.63953 | 76.57960 | 10642 ft | 324 kts | 281° |
| 2026-04-27 08:28 | 28.64370 | 76.55388 | 10913 ft | 337 kts | 281° |
| 2026-04-27 08:28 | 28.64798 | 76.52730 | 11323 ft | 344 kts | 281° |
| 2026-04-27 08:28 | 28.65229 | 76.50042 | 11904 ft | 347 kts | 281° |
| 2026-04-27 08:29 | 28.65662 | 76.47339 | 12558 ft | 348 kts | 281° |
| 2026-04-27 08:29 | 28.66097 | 76.44621 | 13168 ft | 350 kts | 281° |
| 2026-04-27 08:29 | 28.66537 | 76.41872 | 13716 ft | 355 kts | 281° |
| 2026-04-27 08:29 | 28.66981 | 76.39096 | 14295 ft | 358 kts | 281° |
| 2026-04-27 08:30 | 28.67428 | 76.36296 | 14865 ft | 360 kts | 281° |
| 2026-04-27 08:30 | 28.67872 | 76.33514 | 15417 ft | 363 kts | 281° |
| 2026-04-27 08:30 | 28.68326 | 76.30667 | 15957 ft | 366 kts | 281° |
| 2026-04-27 08:30 | 28.68782 | 76.27793 | 16463 ft | 370 kts | 281° |
| 2026-04-27 08:31 | 28.69242 | 76.24893 | 16984 ft | 373 kts | 281° |
| 2026-04-27 08:31 | 28.69705 | 76.21971 | 17519 ft | 376 kts | 280° |
| 2026-04-27 08:31 | 28.70170 | 76.19030 | 18043 ft | 379 kts | 280° |
| 2026-04-27 08:31 | 28.70640 | 76.16053 | 18581 ft | 382 kts | 280° |
| 2026-04-27 08:32 | 28.71112 | 76.13058 | 19098 ft | 385 kts | 280° |
| 2026-04-27 08:32 | 28.71587 | 76.10044 | 19622 ft | 388 kts | 280° |
| 2026-04-27 08:32 | 28.72065 | 76.07005 | 20141 ft | 391 kts | 280° |
| 2026-04-27 08:32 | 28.72549 | 76.03931 | 20693 ft | 394 kts | 280° |
| 2026-04-27 08:33 | 28.73027 | 76.00883 | 21196 ft | 397 kts | 280° |
| 2026-04-27 08:33 | 28.73514 | 75.97771 | 21676 ft | 400 kts | 280° |
| 2026-04-27 08:33 | 28.74004 | 75.94633 | 22148 ft | 404 kts | 280° |
| 2026-04-27 08:33 | 28.74496 | 75.91466 | 22594 ft | 408 kts | 279° |
| 2026-04-27 08:34 | 28.74825 | 75.88247 | 23055 ft | 411 kts | 272° |
| 2026-04-27 08:34 | 28.74772 | 75.84986 | 23564 ft | 413 kts | 267° |
| 2026-04-27 08:34 | 28.74556 | 75.81716 | 24028 ft | 416 kts | 265° |
| 2026-04-27 08:34 | 28.74263 | 75.78418 | 24482 ft | 419 kts | 264° |
| 2026-04-27 08:35 | 28.73941 | 75.75100 | 24948 ft | 423 kts | 264° |
| 2026-04-27 08:35 | 28.73615 | 75.71763 | 25438 ft | 426 kts | 264° |
| 2026-04-27 08:35 | 28.73295 | 75.68396 | 25924 ft | 429 kts | 264° |
| 2026-04-27 08:35 | 28.72982 | 75.65004 | 26379 ft | 432 kts | 265° |
| 2026-04-27 08:36 | 28.72679 | 75.61631 | 26828 ft | 435 kts | 265° |
| 2026-04-27 08:36 | 28.72373 | 75.58186 | 27285 ft | 438 kts | 265° |
| 2026-04-27 08:36 | 28.72067 | 75.54723 | 27726 ft | 440 kts | 265° |
| 2026-04-27 08:36 | 28.71759 | 75.51246 | 28148 ft | 443 kts | 265° |
| 2026-04-27 08:37 | 28.71446 | 75.47736 | 28594 ft | 446 kts | 265° |
| 2026-04-27 08:37 | 28.71130 | 75.44213 | 29002 ft | 449 kts | 265° |
| 2026-04-27 08:37 | 28.70812 | 75.40667 | 29392 ft | 452 kts | 265° |
| 2026-04-27 08:37 | 28.70491 | 75.37095 | 29780 ft | 454 kts | 265° |
| 2026-04-27 08:38 | 28.70167 | 75.33494 | 30154 ft | 457 kts | 265° |
| 2026-04-27 08:38 | 28.69840 | 75.29888 | 30514 ft | 460 kts | 265° |
| 2026-04-27 08:38 | 28.69511 | 75.26261 | 30866 ft | 462 kts | 265° |
| 2026-04-27 08:38 | 28.69178 | 75.22611 | 31218 ft | 464 kts | 265° |
| 2026-04-27 08:39 | 28.68844 | 75.18951 | 31560 ft | 466 kts | 265° |
| 2026-04-27 08:39 | 28.68505 | 75.15262 | 31875 ft | 469 kts | 265° |
| 2026-04-27 08:39 | 28.68165 | 75.11565 | 32177 ft | 471 kts | 265° |
| 2026-04-27 08:39 | 28.67827 | 75.07901 | 32511 ft | 472 kts | 265° |
| 2026-04-27 08:40 | 28.67483 | 75.04184 | 32826 ft | 473 kts | 265° |
| 2026-04-27 08:40 | 28.67138 | 75.00465 | 33227 ft | 471 kts | 265° |
| 2026-04-27 08:40 | 28.66794 | 74.96761 | 33670 ft | 469 kts | 265° |
| 2026-04-27 08:40 | 28.66449 | 74.93066 | 34079 ft | 467 kts | 265° |
| 2026-04-27 08:41 | 28.66106 | 74.89396 | 34456 ft | 466 kts | 264° |
| 2026-04-27 08:41 | 28.65762 | 74.85729 | 34854 ft | 464 kts | 264° |
| 2026-04-27 08:41 | 28.65418 | 74.82082 | 35228 ft | 462 kts | 264° |
| 2026-04-27 08:41 | 28.65190 | 74.79673 | 35446 ft | 462 kts | 264° |
| 2026-04-27 08:42 | 28.64846 | 74.76042 | 35757 ft | 461 kts | 264° |
| 2026-04-27 08:42 | 28.64503 | 74.72424 | 36067 ft | 460 kts | 264° |
| 2026-04-27 08:42 | 28.64160 | 74.68810 | 36348 ft | 459 kts | 264° |
| 2026-04-27 08:42 | 28.63815 | 74.65196 | 36620 ft | 458 kts | 264° |
| 2026-04-27 08:43 | 28.63471 | 74.61598 | 36936 ft | 456 kts | 264° |
| 2026-04-27 08:43 | 28.63128 | 74.58021 | 37297 ft | 452 kts | 264° |
| 2026-04-27 08:43 | 28.62786 | 74.54477 | 37638 ft | 449 kts | 264° |
| 2026-04-27 08:43 | 28.62445 | 74.50937 | 37732 ft | 450 kts | 264° |
| 2026-04-27 08:44 | 28.61762 | 74.43880 | 37732 ft | 452 kts | 264° |
| 2026-04-27 08:44 | 28.61070 | 74.36763 | 37722 ft | 453 kts | 264° |
| 2026-04-27 08:45 | 28.60372 | 74.29633 | 37728 ft | 452 kts | 264° |
| 2026-04-27 08:45 | 28.59670 | 74.22523 | 37733 ft | 452 kts | 264° |
| 2026-04-27 08:46 | 28.58965 | 74.15413 | 37726 ft | 452 kts | 264° |
| 2026-04-27 08:46 | 28.58258 | 74.08300 | 37722 ft | 452 kts | 264° |
| 2026-04-27 08:47 | 28.57544 | 74.01182 | 37722 ft | 452 kts | 264° |
| 2026-04-27 08:47 | 28.56828 | 73.94071 | 37729 ft | 452 kts | 264° |
| 2026-04-27 08:48 | 28.56114 | 73.86999 | 37736 ft | 452 kts | 264° |
| 2026-04-27 08:48 | 28.55392 | 73.79889 | 37704 ft | 453 kts | 264° |
| 2026-04-27 08:49 | 28.54842 | 73.72754 | 37701 ft | 452 kts | 267° |
| 2026-04-27 08:49 | 28.54624 | 73.65603 | 37702 ft | 452 kts | 268° |
| 2026-04-27 08:50 | 28.54404 | 73.58448 | 37702 ft | 453 kts | 268° |
| 2026-04-27 08:50 | 28.54123 | 73.51279 | 37701 ft | 452 kts | 267° |
| 2026-04-27 08:51 | 28.53813 | 73.44180 | 37692 ft | 452 kts | 267° |
| 2026-04-27 08:51 | 28.53496 | 73.37039 | 37692 ft | 452 kts | 267° |
| 2026-04-27 08:52 | 28.53174 | 73.29889 | 37692 ft | 452 kts | 267° |
| 2026-04-27 08:52 | 28.52849 | 73.22736 | 37691 ft | 452 kts | 267° |
| 2026-04-27 08:53 | 28.52523 | 73.15588 | 37692 ft | 452 kts | 267° |
| 2026-04-27 08:53 | 28.52194 | 73.08439 | 37692 ft | 452 kts | 267° |
| 2026-04-27 08:54 | 28.51863 | 73.01336 | 37693 ft | 452 kts | 267° |
| 2026-04-27 08:54 | 28.51525 | 72.94191 | 37682 ft | 452 kts | 267° |
| 2026-04-27 08:55 | 28.51185 | 72.87043 | 37683 ft | 452 kts | 267° |
| 2026-04-27 08:55 | 28.50840 | 72.79895 | 37683 ft | 452 kts | 267° |
| 2026-04-27 08:56 | 28.50491 | 72.72758 | 37683 ft | 452 kts | 267° |
| 2026-04-27 08:56 | 28.50140 | 72.65620 | 37683 ft | 452 kts | 267° |
| 2026-04-27 08:57 | 28.49604 | 72.54907 | 37682 ft | 452 kts | 267° |
| 2026-04-27 08:58 | 28.49244 | 72.47809 | 37683 ft | 452 kts | 267° |
| 2026-04-27 08:58 | 28.48880 | 72.40670 | 37683 ft | 453 kts | 267° |
| 2026-04-27 08:59 | 28.48511 | 72.33521 | 37683 ft | 453 kts | 267° |
| 2026-04-27 08:59 | 28.48138 | 72.26379 | 37683 ft | 453 kts | 266° |
| 2026-04-27 09:00 | 28.47768 | 72.19228 | 37683 ft | 453 kts | 267° |
| 2026-04-27 09:00 | 28.47406 | 72.12079 | 37674 ft | 454 kts | 267° |
| 2026-04-27 09:01 | 28.47038 | 72.04920 | 37673 ft | 453 kts | 267° |
| 2026-04-27 09:01 | 28.46665 | 71.97768 | 37674 ft | 453 kts | 266° |
| 2026-04-27 09:02 | 28.46287 | 71.90611 | 37674 ft | 454 kts | 266° |
| 2026-04-27 09:02 | 28.45906 | 71.83448 | 37674 ft | 454 kts | 266° |
| 2026-04-27 09:03 | 28.45524 | 71.76342 | 37674 ft | 454 kts | 266° |
| 2026-04-27 09:03 | 28.45136 | 71.69197 | 37674 ft | 453 kts | 266° |
| 2026-04-27 09:04 | 28.44746 | 71.62047 | 37674 ft | 453 kts | 266° |
| 2026-04-27 09:04 | 28.44350 | 71.54905 | 37665 ft | 452 kts | 266° |
| 2026-04-27 09:05 | 28.43952 | 71.47756 | 37664 ft | 452 kts | 266° |
| 2026-04-27 09:05 | 28.43549 | 71.40625 | 37664 ft | 452 kts | 266° |
| 2026-04-27 09:06 | 28.43144 | 71.33486 | 37674 ft | 453 kts | 266° |
| 2026-04-27 09:06 | 28.42733 | 71.26336 | 37674 ft | 453 kts | 266° |
| 2026-04-27 09:07 | 28.42317 | 71.19227 | 37673 ft | 454 kts | 266° |
| 2026-04-27 09:07 | 28.41898 | 71.12074 | 37674 ft | 454 kts | 266° |
| 2026-04-27 09:08 | 28.41477 | 71.04927 | 37664 ft | 454 kts | 266° |
| 2026-04-27 09:08 | 28.41051 | 70.97770 | 37664 ft | 453 kts | 266° |
| 2026-04-27 09:09 | 28.40623 | 70.90629 | 37664 ft | 453 kts | 266° |
| 2026-04-27 09:09 | 28.40190 | 70.83476 | 37664 ft | 454 kts | 266° |
| 2026-04-27 09:10 | 28.39752 | 70.76331 | 37673 ft | 453 kts | 266° |
| 2026-04-27 09:10 | 28.39310 | 70.69185 | 37673 ft | 453 kts | 266° |
| 2026-04-27 09:11 | 28.38869 | 70.62088 | 37674 ft | 454 kts | 266° |
| 2026-04-27 09:11 | 28.38421 | 70.54940 | 37674 ft | 454 kts | 266° |
| 2026-04-27 09:12 | 28.37970 | 70.47796 | 37665 ft | 454 kts | 266° |
| 2026-04-27 09:12 | 28.37514 | 70.40650 | 37664 ft | 454 kts | 266° |
| 2026-04-27 09:13 | 28.37055 | 70.33507 | 37664 ft | 454 kts | 266° |
| 2026-04-27 09:13 | 28.35971 | 70.26457 | 37674 ft | 455 kts | 253° |
| 2026-04-27 09:14 | 28.33507 | 70.19824 | 37673 ft | 457 kts | 246° |
| 2026-04-27 09:14 | 28.30728 | 70.13335 | 37673 ft | 457 kts | 245° |
| 2026-04-27 09:15 | 28.27908 | 70.06866 | 37674 ft | 457 kts | 245° |
| 2026-04-27 09:15 | 28.25123 | 70.00433 | 37674 ft | 457 kts | 245° |
| 2026-04-27 09:16 | 28.22331 | 69.93954 | 37674 ft | 457 kts | 245° |
| 2026-04-27 09:16 | 28.19541 | 69.87478 | 37674 ft | 457 kts | 245° |
| 2026-04-27 09:17 | 28.16747 | 69.81000 | 37673 ft | 457 kts | 245° |
| 2026-04-27 09:17 | 28.13949 | 69.74532 | 37683 ft | 457 kts | 245° |
| 2026-04-27 09:18 | 28.11147 | 69.68064 | 37683 ft | 457 kts | 245° |
| 2026-04-27 09:18 | 28.08344 | 69.61604 | 37683 ft | 456 kts | 245° |
| 2026-04-27 09:19 | 28.05541 | 69.55155 | 37683 ft | 456 kts | 245° |
| 2026-04-27 09:19 | 28.02746 | 69.48736 | 37683 ft | 456 kts | 245° |
| 2026-04-27 09:20 | 27.99940 | 69.42301 | 37683 ft | 455 kts | 245° |
| 2026-04-27 09:20 | 27.97131 | 69.35871 | 37686 ft | 457 kts | 245° |
| 2026-04-27 09:21 | 27.94311 | 69.29425 | 37692 ft | 457 kts | 245° |
| 2026-04-27 09:21 | 27.91487 | 69.22974 | 37701 ft | 457 kts | 245° |
| 2026-04-27 09:22 | 27.88654 | 69.16540 | 37702 ft | 457 kts | 245° |
| 2026-04-27 09:22 | 27.85807 | 69.10125 | 37702 ft | 456 kts | 245° |
| 2026-04-27 09:23 | 27.82959 | 69.03713 | 37702 ft | 456 kts | 245° |
| 2026-04-27 09:23 | 27.80113 | 68.97317 | 37706 ft | 456 kts | 245° |
| 2026-04-27 09:24 | 27.77267 | 68.90923 | 37713 ft | 455 kts | 245° |
| 2026-04-27 09:24 | 27.74437 | 68.84569 | 37711 ft | 456 kts | 245° |
| 2026-04-27 09:25 | 27.72087 | 68.77975 | 37712 ft | 452 kts | 257° |
| 2026-04-27 09:25 | 27.70780 | 68.71026 | 37711 ft | 452 kts | 260° |
| 2026-04-27 09:26 | 27.69656 | 68.64060 | 37712 ft | 451 kts | 261° |
| 2026-04-27 09:26 | 27.68546 | 68.57099 | 37714 ft | 451 kts | 261° |
| 2026-04-27 09:27 | 27.67417 | 68.50146 | 37713 ft | 450 kts | 261° |
| 2026-04-27 09:27 | 27.66275 | 68.43207 | 37724 ft | 450 kts | 260° |
| 2026-04-27 09:28 | 27.65321 | 68.37442 | 37715 ft | 449 kts | 260° |
| 2026-04-27 09:28 | 27.64172 | 68.30514 | 37714 ft | 449 kts | 260° |
| 2026-04-27 09:29 | 27.63022 | 68.23591 | 37722 ft | 449 kts | 260° |
| 2026-04-27 09:29 | 27.61868 | 68.16677 | 37721 ft | 449 kts | 260° |
| 2026-04-27 09:30 | 27.60712 | 68.09764 | 37715 ft | 448 kts | 260° |
| 2026-04-27 09:30 | 27.59552 | 68.02857 | 37724 ft | 448 kts | 260° |
| 2026-04-27 09:31 | 27.58387 | 67.95942 | 37727 ft | 448 kts | 260° |
| 2026-04-27 09:31 | 27.57224 | 67.89049 | 37735 ft | 448 kts | 260° |
| 2026-04-27 09:32 | 27.56056 | 67.82151 | 37729 ft | 448 kts | 260° |
| 2026-04-27 09:32 | 27.54884 | 67.75260 | 37737 ft | 448 kts | 260° |
| 2026-04-27 09:33 | 27.53708 | 67.68357 | 37726 ft | 449 kts | 260° |
| 2026-04-27 09:33 | 27.52533 | 67.61496 | 37726 ft | 449 kts | 260° |
| 2026-04-27 09:34 | 27.51346 | 67.54587 | 37726 ft | 449 kts | 260° |
| 2026-04-27 09:34 | 27.50159 | 67.47688 | 37727 ft | 449 kts | 260° |
| 2026-04-27 09:35 | 27.48967 | 67.40774 | 37734 ft | 449 kts | 260° |
| 2026-04-27 09:35 | 27.47771 | 67.33869 | 37728 ft | 449 kts | 260° |
| 2026-04-27 09:36 | 27.46571 | 67.26960 | 37728 ft | 449 kts | 260° |
| 2026-04-27 09:36 | 27.45380 | 67.20058 | 37734 ft | 449 kts | 261° |
| 2026-04-27 09:37 | 27.44320 | 67.13122 | 37738 ft | 449 kts | 262° |
| 2026-04-27 09:37 | 27.43299 | 67.06211 | 37740 ft | 450 kts | 262° |
| 2026-04-27 09:38 | 27.42253 | 66.99271 | 37735 ft | 450 kts | 261° |
| 2026-04-27 09:38 | 27.41188 | 66.92333 | 37734 ft | 449 kts | 262° |
| 2026-04-27 09:39 | 27.40118 | 66.85404 | 37743 ft | 449 kts | 261° |
| 2026-04-27 09:39 | 27.39043 | 66.78474 | 37735 ft | 449 kts | 261° |
| 2026-04-27 09:40 | 27.37966 | 66.71549 | 37740 ft | 450 kts | 261° |
| 2026-04-27 09:40 | 27.36886 | 66.64611 | 37753 ft | 450 kts | 261° |
| 2026-04-27 09:41 | 27.35802 | 66.57684 | 37751 ft | 450 kts | 261° |
| 2026-04-27 09:41 | 27.34719 | 66.50796 | 37748 ft | 450 kts | 261° |
| 2026-04-27 09:42 | 27.33627 | 66.43863 | 37746 ft | 450 kts | 261° |
| 2026-04-27 09:42 | 27.32533 | 66.36936 | 37752 ft | 450 kts | 261° |
| 2026-04-27 09:43 | 27.31436 | 66.30014 | 37753 ft | 450 kts | 261° |
| 2026-04-27 09:43 | 27.30331 | 66.23085 | 37748 ft | 449 kts | 261° |
| 2026-04-27 09:44 | 27.29229 | 66.16164 | 37746 ft | 450 kts | 261° |
| 2026-04-27 09:44 | 27.28122 | 66.09246 | 37749 ft | 450 kts | 261° |
| 2026-04-27 09:45 | 27.27013 | 66.02332 | 37714 ft | 450 kts | 261° |
| 2026-04-27 09:45 | 27.25896 | 65.95411 | 37730 ft | 450 kts | 261° |
| 2026-04-27 09:46 | 27.24777 | 65.88499 | 37713 ft | 449 kts | 261° |
| 2026-04-27 09:46 | 27.23660 | 65.81631 | 37724 ft | 449 kts | 261° |
| 2026-04-27 09:47 | 27.22535 | 65.74722 | 37726 ft | 449 kts | 261° |
| 2026-04-27 09:47 | 27.21409 | 65.67827 | 37725 ft | 448 kts | 261° |
| 2026-04-27 09:48 | 27.20279 | 65.60934 | 37735 ft | 448 kts | 261° |
| 2026-04-27 09:48 | 27.19145 | 65.54037 | 37733 ft | 449 kts | 261° |
| 2026-04-27 09:49 | 27.18006 | 65.47141 | 37735 ft | 449 kts | 261° |
| 2026-04-27 09:49 | 27.16866 | 65.40248 | 37722 ft | 449 kts | 261° |
| 2026-04-27 09:50 | 27.15730 | 65.33401 | 37734 ft | 449 kts | 261° |
| 2026-04-27 09:50 | 27.14584 | 65.26519 | 37729 ft | 448 kts | 261° |
| 2026-04-27 09:51 | 27.13435 | 65.19639 | 37733 ft | 448 kts | 261° |
| 2026-04-27 09:51 | 27.12283 | 65.12765 | 37737 ft | 448 kts | 261° |
| 2026-04-27 09:52 | 27.11128 | 65.05897 | 37733 ft | 448 kts | 261° |
| 2026-04-27 09:52 | 27.09967 | 64.99025 | 37737 ft | 448 kts | 261° |
| 2026-04-27 09:53 | 27.08807 | 64.92166 | 37738 ft | 447 kts | 261° |
| 2026-04-27 09:53 | 27.07646 | 64.85305 | 37734 ft | 447 kts | 261° |
| 2026-04-27 09:54 | 27.06483 | 64.78478 | 37736 ft | 447 kts | 261° |
| 2026-04-27 09:54 | 27.05314 | 64.71633 | 37738 ft | 446 kts | 261° |
| 2026-04-27 09:55 | 27.04144 | 64.64794 | 37736 ft | 446 kts | 261° |
| 2026-04-27 09:55 | 27.02380 | 64.54525 | 37746 ft | 447 kts | 261° |
| 2026-04-27 09:56 | 27.01207 | 64.47727 | 37746 ft | 447 kts | 261° |
| 2026-04-27 09:56 | 27.00025 | 64.40892 | 37745 ft | 447 kts | 261° |
| 2026-04-27 09:57 | 26.98837 | 64.34051 | 37748 ft | 447 kts | 261° |
| 2026-04-27 09:57 | 26.97645 | 64.27206 | 37749 ft | 447 kts | 261° |
| 2026-04-27 09:58 | 26.96447 | 64.20375 | 37750 ft | 447 kts | 260° |
| 2026-04-27 09:58 | 26.94425 | 64.13776 | 37751 ft | 452 kts | 246° |
| 2026-04-27 09:59 | 26.90827 | 64.07957 | 37753 ft | 458 kts | 234° |
| 2026-04-27 09:59 | 26.86619 | 64.02560 | 37757 ft | 460 kts | 232° |
| 2026-04-27 10:00 | 26.82333 | 63.97224 | 37757 ft | 461 kts | 232° |
| 2026-04-27 10:00 | 26.78088 | 63.91906 | 37757 ft | 461 kts | 233° |
| 2026-04-27 10:01 | 26.73829 | 63.86532 | 37758 ft | 461 kts | 233° |
| 2026-04-27 10:01 | 26.69573 | 63.81159 | 37754 ft | 461 kts | 233° |
| 2026-04-27 10:02 | 26.65307 | 63.75779 | 37746 ft | 462 kts | 233° |
| 2026-04-27 10:02 | 26.61031 | 63.70399 | 37752 ft | 462 kts | 233° |
| 2026-04-27 10:03 | 26.56793 | 63.65068 | 37750 ft | 462 kts | 233° |
| 2026-04-27 10:03 | 26.52519 | 63.59695 | 37748 ft | 462 kts | 233° |
| 2026-04-27 10:04 | 26.48247 | 63.54337 | 37747 ft | 462 kts | 233° |
| 2026-04-27 10:04 | 26.43966 | 63.48976 | 37748 ft | 463 kts | 233° |
| 2026-04-27 10:05 | 26.39685 | 63.43618 | 37751 ft | 463 kts | 233° |
| 2026-04-27 10:05 | 26.35393 | 63.38250 | 37760 ft | 463 kts | 233° |
| 2026-04-27 10:06 | 26.31103 | 63.32895 | 37758 ft | 463 kts | 233° |
| 2026-04-27 10:06 | 26.26831 | 63.27569 | 37759 ft | 463 kts | 233° |
| 2026-04-27 10:07 | 26.22536 | 63.22220 | 37759 ft | 463 kts | 233° |
| 2026-04-27 10:07 | 26.18236 | 63.16872 | 37758 ft | 463 kts | 233° |
| 2026-04-27 10:08 | 26.13931 | 63.11524 | 37757 ft | 463 kts | 233° |
| 2026-04-27 10:08 | 26.09627 | 63.06184 | 37757 ft | 463 kts | 233° |
| 2026-04-27 10:09 | 26.05321 | 63.00846 | 37759 ft | 464 kts | 233° |
| 2026-04-27 10:09 | 26.01035 | 62.95540 | 37758 ft | 464 kts | 233° |
| 2026-04-27 10:10 | 25.96714 | 62.90197 | 37760 ft | 465 kts | 233° |
| 2026-04-27 10:10 | 25.92384 | 62.84823 | 37767 ft | 468 kts | 233° |
| 2026-04-27 10:11 | 25.88041 | 62.79442 | 37765 ft | 468 kts | 233° |
| 2026-04-27 10:11 | 25.83682 | 62.74054 | 37753 ft | 468 kts | 233° |
| 2026-04-27 10:12 | 25.79328 | 62.68681 | 37747 ft | 468 kts | 233° |
| 2026-04-27 10:12 | 25.74968 | 62.63304 | 37744 ft | 468 kts | 233° |
| 2026-04-27 10:13 | 25.70605 | 62.57930 | 37744 ft | 469 kts | 233° |
| 2026-04-27 10:13 | 25.66238 | 62.52557 | 37750 ft | 469 kts | 233° |
| 2026-04-27 10:14 | 25.62603 | 62.48093 | 37748 ft | 469 kts | 233° |
| 2026-04-27 10:14 | 25.58222 | 62.42716 | 37746 ft | 469 kts | 233° |
| 2026-04-27 10:15 | 25.53840 | 62.37344 | 37751 ft | 469 kts | 233° |
| 2026-04-27 10:15 | 25.49492 | 62.32018 | 37747 ft | 469 kts | 233° |
| 2026-04-27 10:16 | 25.45087 | 62.26628 | 37747 ft | 469 kts | 233° |
| 2026-04-27 10:16 | 25.40733 | 62.21309 | 37747 ft | 469 kts | 233° |
| 2026-04-27 10:17 | 25.36343 | 62.15955 | 37751 ft | 470 kts | 233° |
| 2026-04-27 10:17 | 25.31951 | 62.10599 | 37749 ft | 470 kts | 233° |
| 2026-04-27 10:18 | 25.27559 | 62.05250 | 37745 ft | 470 kts | 233° |
| 2026-04-27 10:18 | 25.23161 | 61.99903 | 37743 ft | 471 kts | 232° |
| 2026-04-27 10:19 | 25.18749 | 61.94543 | 37752 ft | 471 kts | 233° |
| 2026-04-27 10:19 | 25.14339 | 61.89192 | 37748 ft | 471 kts | 232° |
| 2026-04-27 10:20 | 25.09947 | 61.83870 | 37750 ft | 472 kts | 232° |
| 2026-04-27 10:20 | 25.06000 | 61.78152 | 37750 ft | 464 kts | 245° |
| 2026-04-27 10:21 | 25.03180 | 61.71790 | 37747 ft | 461 kts | 250° |
| 2026-04-27 10:21 | 25.00568 | 61.65325 | 37751 ft | 461 kts | 250° |
| 2026-04-27 10:22 | 24.97977 | 61.58845 | 37748 ft | 462 kts | 250° |
| 2026-04-27 10:22 | 24.95366 | 61.52382 | 37756 ft | 462 kts | 250° |
| 2026-04-27 10:23 | 24.92740 | 61.45923 | 37759 ft | 462 kts | 250° |
| 2026-04-27 10:23 | 24.90163 | 61.39498 | 37757 ft | 462 kts | 250° |
| 2026-04-27 10:24 | 24.87577 | 61.33020 | 37758 ft | 462 kts | 250° |
| 2026-04-27 10:24 | 24.84985 | 61.26547 | 37757 ft | 462 kts | 250° |
| 2026-04-27 10:25 | 24.82386 | 61.20073 | 37758 ft | 462 kts | 250° |
| 2026-04-27 10:25 | 24.79786 | 61.13610 | 37758 ft | 462 kts | 250° |
| 2026-04-27 10:26 | 24.77184 | 61.07151 | 37757 ft | 462 kts | 250° |
| 2026-04-27 10:26 | 24.74576 | 61.00686 | 37759 ft | 462 kts | 250° |
| 2026-04-27 10:27 | 24.71967 | 60.94228 | 37757 ft | 462 kts | 250° |
| 2026-04-27 10:27 | 24.69330 | 60.87782 | 37758 ft | 463 kts | 249° |
| 2026-04-27 10:28 | 24.66579 | 60.81428 | 37772 ft | 463 kts | 248° |
| 2026-04-27 10:28 | 24.63789 | 60.75052 | 37778 ft | 463 kts | 249° |
| 2026-04-27 10:29 | 24.61009 | 60.68656 | 37777 ft | 463 kts | 249° |
| 2026-04-27 10:29 | 24.58242 | 60.62265 | 37759 ft | 463 kts | 249° |
| 2026-04-27 10:30 | 24.55476 | 60.55874 | 37758 ft | 463 kts | 249° |
| 2026-04-27 10:30 | 24.52714 | 60.49520 | 37757 ft | 464 kts | 249° |
| 2026-04-27 10:31 | 24.49931 | 60.43130 | 37754 ft | 464 kts | 249° |
| 2026-04-27 10:31 | 24.47144 | 60.36734 | 37747 ft | 464 kts | 249° |
| 2026-04-27 10:32 | 24.44352 | 60.30335 | 37750 ft | 464 kts | 249° |
| 2026-04-27 10:32 | 24.41563 | 60.23950 | 37751 ft | 464 kts | 249° |
| 2026-04-27 10:33 | 24.38767 | 60.17560 | 37745 ft | 465 kts | 249° |
| 2026-04-27 10:33 | 24.35965 | 60.11165 | 37750 ft | 465 kts | 249° |
| 2026-04-27 10:34 | 24.33159 | 60.04778 | 37751 ft | 465 kts | 248° |
| 2026-04-27 10:34 | 24.30349 | 59.98376 | 37744 ft | 466 kts | 248° |
| 2026-04-27 10:35 | 24.27542 | 59.91981 | 37746 ft | 466 kts | 248° |
| 2026-04-27 10:35 | 24.24744 | 59.85628 | 37748 ft | 466 kts | 248° |
| 2026-04-27 10:36 | 24.21921 | 59.79230 | 37750 ft | 466 kts | 248° |
| 2026-04-27 10:36 | 24.19097 | 59.72837 | 37747 ft | 466 kts | 248° |
| 2026-04-27 10:37 | 24.16272 | 59.66450 | 37751 ft | 465 kts | 248° |
| 2026-04-27 10:37 | 24.13445 | 59.60071 | 37749 ft | 465 kts | 248° |
| 2026-04-27 10:38 | 24.10619 | 59.53696 | 37746 ft | 465 kts | 248° |
| 2026-04-27 10:38 | 24.07791 | 59.47322 | 37749 ft | 465 kts | 248° |
| 2026-04-27 10:39 | 24.04962 | 59.40961 | 37748 ft | 465 kts | 248° |
| 2026-04-27 10:39 | 24.02143 | 59.34642 | 37742 ft | 465 kts | 248° |
| 2026-04-27 10:40 | 23.99304 | 59.28291 | 37750 ft | 464 kts | 248° |
| 2026-04-27 10:40 | 23.96467 | 59.21934 | 37749 ft | 466 kts | 248° |
| 2026-04-27 10:41 | 23.93666 | 59.15536 | 37748 ft | 465 kts | 252° |
| 2026-04-27 10:41 | 23.91854 | 59.08815 | 37748 ft | 460 kts | 261° |
| 2026-04-27 10:42 | 23.90516 | 59.01982 | 37750 ft | 460 kts | 262° |
| 2026-04-27 10:42 | 23.89250 | 58.95132 | 37746 ft | 460 kts | 262° |
| 2026-04-27 10:43 | 23.87974 | 58.88289 | 37746 ft | 460 kts | 262° |
| 2026-04-27 10:43 | 23.86681 | 58.81465 | 37744 ft | 459 kts | 262° |
| 2026-04-27 10:44 | 23.85380 | 58.74643 | 37747 ft | 458 kts | 262° |
| 2026-04-27 10:44 | 23.84735 | 58.71282 | 37750 ft | 443 kts | 262° |
| 2026-04-27 10:44 | 23.84109 | 58.68044 | 37754 ft | 428 kts | 262° |
| 2026-04-27 10:45 | 23.82891 | 58.61684 | 37752 ft | 436 kts | 262° |
| 2026-04-27 10:45 | 23.81637 | 58.55109 | 37747 ft | 447 kts | 262° |
| 2026-04-27 10:46 | 23.80346 | 58.48382 | 37740 ft | 458 kts | 262° |
| 2026-04-27 10:46 | 23.79029 | 58.41563 | 37749 ft | 458 kts | 262° |
| 2026-04-27 10:47 | 23.77710 | 58.34772 | 37752 ft | 457 kts | 261° |
| 2026-04-27 10:47 | 23.76388 | 58.27965 | 37745 ft | 457 kts | 261° |
| 2026-04-27 10:48 | 23.75068 | 58.21181 | 37747 ft | 457 kts | 261° |
| 2026-04-27 10:48 | 23.73755 | 58.14450 | 37745 ft | 456 kts | 262° |
| 2026-04-27 10:49 | 23.72431 | 58.07668 | 37745 ft | 456 kts | 262° |
| 2026-04-27 10:49 | 23.71105 | 58.00895 | 37746 ft | 456 kts | 261° |
| 2026-04-27 10:50 | 23.70034 | 57.94093 | 37752 ft | 452 kts | 269° |
| 2026-04-27 10:50 | 23.70524 | 57.87322 | 37755 ft | 447 kts | 283° |
| 2026-04-27 10:51 | 23.71884 | 57.80691 | 37752 ft | 448 kts | 285° |
| 2026-04-27 10:51 | 23.73366 | 57.74087 | 37750 ft | 448 kts | 285° |
| 2026-04-27 10:52 | 23.74827 | 57.67531 | 37742 ft | 448 kts | 285° |
| 2026-04-27 10:52 | 23.76276 | 57.60896 | 37743 ft | 448 kts | 284° |
| 2026-04-27 10:53 | 23.78430 | 57.50969 | 37740 ft | 448 kts | 284° |
| 2026-04-27 10:54 | 23.79859 | 57.44342 | 37734 ft | 448 kts | 284° |
| 2026-04-27 10:54 | 23.81288 | 57.37704 | 37619 ft | 448 kts | 284° |
| 2026-04-27 10:54 | 23.81997 | 57.34405 | 37382 ft | 445 kts | 284° |
| 2026-04-27 10:55 | 23.82704 | 57.31116 | 37129 ft | 444 kts | 284° |
| 2026-04-27 10:55 | 23.83410 | 57.27829 | 36873 ft | 444 kts | 284° |
| 2026-04-27 10:55 | 23.84107 | 57.24583 | 36632 ft | 445 kts | 284° |
| 2026-04-27 10:55 | 23.84813 | 57.21291 | 36379 ft | 445 kts | 284° |
| 2026-04-27 10:56 | 23.85519 | 57.17996 | 36128 ft | 446 kts | 284° |
| 2026-04-27 10:56 | 23.86229 | 57.14681 | 35861 ft | 450 kts | 284° |
| 2026-04-27 10:56 | 23.86946 | 57.11327 | 35630 ft | 455 kts | 284° |
| 2026-04-27 10:56 | 23.87664 | 57.07959 | 35366 ft | 456 kts | 284° |
| 2026-04-27 10:57 | 23.88382 | 57.04587 | 35115 ft | 455 kts | 284° |
| 2026-04-27 10:57 | 23.89095 | 57.01233 | 34866 ft | 452 kts | 284° |
| 2026-04-27 10:57 | 23.89807 | 56.97887 | 34619 ft | 450 kts | 284° |
| 2026-04-27 10:57 | 23.90514 | 56.94556 | 34368 ft | 449 kts | 284° |
| 2026-04-27 10:58 | 23.91217 | 56.91244 | 34120 ft | 447 kts | 284° |
| 2026-04-27 10:58 | 23.91918 | 56.87939 | 33871 ft | 445 kts | 284° |
| 2026-04-27 10:58 | 23.92615 | 56.84651 | 33625 ft | 443 kts | 284° |
| 2026-04-27 10:58 | 23.93309 | 56.81374 | 33372 ft | 442 kts | 284° |
| 2026-04-27 10:59 | 23.93990 | 56.78148 | 33127 ft | 440 kts | 284° |
| 2026-04-27 10:59 | 23.94677 | 56.74894 | 32877 ft | 438 kts | 284° |
| 2026-04-27 10:59 | 23.95358 | 56.71661 | 32634 ft | 436 kts | 283° |
| 2026-04-27 11:00 | 23.96709 | 56.65235 | 32139 ft | 432 kts | 283° |
| 2026-04-27 11:00 | 23.97379 | 56.62041 | 31884 ft | 431 kts | 283° |
| 2026-04-27 11:00 | 23.98050 | 56.58852 | 31626 ft | 429 kts | 283° |
| 2026-04-27 11:00 | 23.98717 | 56.55685 | 31382 ft | 427 kts | 283° |
| 2026-04-27 11:01 | 23.99378 | 56.52523 | 31135 ft | 425 kts | 283° |
| 2026-04-27 11:01 | 23.99813 | 56.50436 | 30972 ft | 423 kts | 283° |
| 2026-04-27 11:01 | 24.00464 | 56.47315 | 30684 ft | 417 kts | 283° |
| 2026-04-27 11:01 | 24.01104 | 56.44252 | 30254 ft | 410 kts | 282° |
| 2026-04-27 11:02 | 24.01736 | 56.41226 | 29791 ft | 405 kts | 282° |
| 2026-04-27 11:02 | 24.02357 | 56.38245 | 29335 ft | 400 kts | 282° |
| 2026-04-27 11:02 | 24.02971 | 56.35291 | 28862 ft | 396 kts | 282° |
| 2026-04-27 11:02 | 24.03579 | 56.32374 | 28405 ft | 391 kts | 282° |
| 2026-04-27 11:03 | 24.04178 | 56.29496 | 27962 ft | 387 kts | 282° |